createdAt,value
2019-04-06T00:00:38.697Z,14.97
2019-04-06T00:03:09.180Z,16.27
2019-04-06T00:05:39.882Z,15.93
2019-04-06T00:08:10.347Z,14.73
2019-04-06T00:10:40.821Z,15.70
2019-04-06T00:13:11.424Z,16.13
2019-04-06T00:15:41.878Z,14.50
2019-04-06T00:18:12.303Z,15.70
2019-04-06T00:20:43.054Z,15.10
2019-04-06T00:23:13.524Z,16.70
2019-04-06T00:25:44.988Z,14.93
2019-04-06T00:28:15.608Z,13.73
2019-04-06T00:31:20.039Z,14.07
2019-04-06T00:33:50.548Z,15.27
2019-04-06T00:36:21.233Z,15.53
2019-04-06T00:38:51.589Z,15.37
2019-04-06T00:41:22.029Z,16.33
2019-04-06T00:43:52.462Z,16.03
2019-04-06T00:46:22.918Z,17.33
2019-04-06T00:48:53.385Z,15.83
2019-04-06T00:51:25.610Z,15.60
2019-04-06T00:53:56.015Z,15.60
2019-04-06T00:56:26.677Z,16.70
2019-04-06T00:58:57.112Z,14.73
2019-04-06T01:01:27.679Z,16.30
2019-04-06T01:03:58.242Z,16.20
2019-04-06T01:06:28.665Z,14.07
2019-04-06T01:08:59.122Z,14.60
2019-04-06T01:11:30.625Z,14.10
2019-04-06T01:14:01.044Z,15.40
2019-04-06T01:16:31.504Z,13.73
2019-04-06T01:19:02.366Z,14.47
2019-04-06T01:21:32.842Z,13.90
2019-04-06T01:24:03.718Z,15.47
2019-04-06T01:26:34.211Z,15.17
2019-04-06T01:29:04.775Z,13.13
2019-04-06T01:31:35.448Z,14.80
2019-04-06T01:34:06.208Z,14.70
2019-04-06T01:36:36.672Z,15.20
2019-04-06T01:39:08.153Z,13.40
2019-04-06T01:41:38.596Z,16.13
2019-04-06T01:44:09.556Z,14.63
2019-04-06T01:46:39.958Z,15.07
2019-04-06T01:49:10.692Z,14.60
2019-04-06T01:51:41.189Z,13.90
2019-04-06T01:54:11.671Z,15.40
2019-04-06T01:56:42.276Z,17.30
2019-04-06T01:59:12.766Z,15.80
2019-04-06T02:02:05.346Z,15.80
2019-04-06T02:04:35.797Z,16.07
2019-04-06T02:07:06.488Z,17.07
2019-04-06T02:09:36.940Z,13.60
2019-04-06T02:12:07.384Z,15.57
2019-04-06T02:14:38.197Z,14.97
2019-04-06T02:17:08.784Z,16.60
2019-04-06T02:19:39.440Z,16.70
2019-04-06T02:22:10.220Z,15.53
2019-04-06T02:24:40.797Z,16.03
2019-04-06T02:27:11.258Z,16.27
2019-04-06T02:29:41.793Z,17.47
2019-04-06T02:32:37.230Z,14.70
2019-04-06T02:35:17.838Z,14.17
2019-04-06T02:38:03.799Z,16.00
2019-04-06T02:40:45.620Z,15.50
2019-04-06T02:43:19.573Z,16.03
2019-04-06T02:45:49.993Z,16.00
2019-04-06T02:48:20.481Z,16.37
2019-04-06T02:50:50.976Z,17.00
2019-04-06T02:53:23.381Z,15.90
2019-04-06T02:55:53.904Z,15.13
2019-04-06T02:58:24.959Z,18.40
2019-04-06T03:00:55.665Z,15.97
2019-04-06T03:03:26.180Z,17.80
2019-04-06T03:05:56.590Z,15.17
2019-04-06T03:08:27.284Z,15.00
2019-04-06T03:10:57.748Z,16.67
2019-04-06T03:13:28.194Z,15.90
2019-04-06T03:15:58.990Z,14.70
2019-04-06T03:18:29.756Z,16.57
2019-04-06T03:21:00.260Z,15.90
2019-04-06T03:23:30.709Z,17.20
2019-04-06T03:26:01.235Z,15.43
2019-04-06T03:28:31.742Z,16.23
2019-04-06T03:31:02.653Z,16.67
2019-04-06T03:33:33.374Z,14.10
2019-04-06T03:36:03.878Z,15.37
2019-04-06T03:38:34.556Z,17.10
2019-04-06T03:41:05.226Z,15.13
2019-04-06T03:43:35.940Z,17.70
2019-04-06T03:46:06.362Z,17.07
2019-04-06T03:48:36.848Z,16.70
2019-04-06T03:51:08.294Z,17.47
2019-04-06T03:53:38.857Z,15.57
2019-04-06T03:56:09.299Z,15.93
2019-04-06T03:58:42.002Z,16.40
2019-04-06T04:01:12.390Z,17.67
2019-04-06T04:03:42.843Z,15.40
2019-04-06T04:06:13.471Z,17.27
2019-04-06T04:08:44.105Z,16.27
2019-04-06T04:11:14.858Z,15.53
2019-04-06T04:13:45.510Z,16.00
2019-04-06T04:16:16.281Z,16.70
2019-04-06T04:18:46.824Z,17.20
2019-04-06T04:21:17.742Z,15.53
2019-04-06T04:23:48.184Z,17.47
2019-04-06T04:26:18.680Z,16.60
2019-04-06T04:28:49.233Z,16.70
2019-04-06T04:31:19.819Z,17.10
2019-04-06T04:33:50.490Z,16.73
2019-04-06T04:36:21.244Z,17.13
2019-04-06T04:38:51.900Z,17.40
2019-04-06T04:41:22.416Z,17.63
2019-04-06T04:43:52.901Z,15.87
2019-04-06T04:46:23.662Z,17.47
2019-04-06T04:48:54.127Z,16.80
2019-04-06T04:51:24.944Z,18.23
2019-04-06T04:53:55.380Z,18.43
2019-04-06T04:56:25.981Z,17.03
2019-04-06T04:58:56.816Z,18.27
2019-04-06T05:01:27.668Z,17.80
2019-04-06T05:03:58.116Z,18.80
2019-04-06T05:06:29.063Z,18.27
2019-04-06T05:08:59.540Z,19.73
2019-04-06T05:11:29.998Z,21.20
2019-04-06T05:14:54.163Z,17.43
2019-04-06T05:17:24.632Z,17.63
2019-04-06T05:19:55.159Z,16.50
2019-04-06T05:22:25.934Z,16.47
2019-04-06T05:24:56.559Z,14.57
2019-04-06T05:27:27.343Z,16.77
2019-04-06T05:29:57.848Z,16.13
2019-04-06T05:32:28.708Z,16.07
2019-04-06T05:34:59.135Z,15.70
2019-04-06T05:37:29.674Z,16.27
2019-04-06T05:40:00.105Z,18.37
2019-04-06T05:42:31.215Z,18.50
2019-04-06T05:45:01.624Z,16.70
2019-04-06T05:47:32.417Z,18.20
2019-04-06T05:50:02.909Z,18.20
2019-04-06T05:52:33.752Z,16.07
2019-04-06T05:55:04.235Z,14.30
2019-04-06T05:57:37.080Z,15.57
2019-04-06T06:00:09.849Z,16.97
2019-04-06T06:02:41.364Z,16.77
2019-04-06T06:05:14.009Z,15.70
2019-04-06T06:07:44.439Z,17.00
2019-04-06T06:10:15.149Z,15.67
2019-04-06T06:12:45.607Z,15.00
2019-04-06T06:15:16.517Z,15.27
2019-04-06T06:17:47.037Z,16.73
2019-04-06T06:20:17.542Z,16.83
2019-04-06T06:22:48.137Z,15.60
2019-04-06T06:25:18.719Z,17.80
2019-04-06T06:27:49.180Z,16.30
2019-04-06T06:30:20.515Z,16.80
2019-04-06T06:32:51.097Z,17.77
2019-04-06T06:35:21.598Z,17.50
2019-04-06T06:37:52.239Z,17.83
2019-04-06T06:40:22.728Z,18.30
2019-04-06T06:42:53.206Z,17.70
2019-04-06T06:45:23.846Z,16.40
2019-04-06T06:47:54.378Z,18.47
2019-04-06T06:50:24.895Z,19.80
2019-04-06T06:52:55.661Z,23.03
2019-04-06T06:55:26.923Z,21.43
2019-04-06T06:57:57.924Z,20.80
2019-04-06T07:00:28.367Z,20.90
2019-04-06T07:02:58.982Z,21.50
2019-04-06T07:05:29.474Z,22.00
2019-04-06T07:07:59.972Z,23.50
2019-04-06T07:10:30.413Z,23.20
2019-04-06T07:13:00.910Z,20.60
2019-04-06T07:15:31.410Z,21.17
2019-04-06T07:18:02.006Z,21.97
2019-04-06T07:20:32.627Z,21.90
2019-04-06T07:23:03.165Z,23.27
2019-04-06T07:25:33.668Z,22.20
2019-04-06T07:28:04.143Z,21.13
2019-04-06T07:30:34.695Z,22.43
2019-04-06T07:33:05.696Z,20.70
2019-04-06T07:35:36.183Z,22.17
2019-04-06T07:38:06.776Z,23.40
2019-04-06T07:40:37.368Z,22.60
2019-04-06T07:43:08.137Z,22.03
2019-04-06T07:45:38.693Z,21.30
2019-04-06T07:48:09.507Z,20.63
2019-04-06T07:50:40.344Z,21.20
2019-04-06T07:53:10.929Z,20.97
2019-04-06T07:55:41.773Z,21.57
2019-04-06T07:58:12.208Z,20.17
2019-04-06T08:00:42.763Z,21.40
2019-04-06T08:03:13.737Z,20.33
2019-04-06T08:05:44.366Z,19.60
2019-04-06T08:08:15.000Z,19.60
2019-04-06T08:10:45.602Z,19.43
2019-04-06T08:13:16.275Z,19.87
2019-04-06T08:15:46.752Z,21.23
2019-04-06T08:18:17.384Z,18.43
2019-04-06T08:20:48.127Z,20.37
2019-04-06T08:23:18.732Z,21.50
2019-04-06T08:25:49.419Z,20.17
2019-04-06T08:28:19.980Z,18.97
2019-04-06T08:30:50.637Z,18.30
2019-04-06T08:33:21.274Z,19.00
2019-04-06T08:35:52.152Z,19.20
2019-04-06T08:38:22.665Z,18.70
2019-04-06T08:40:53.447Z,18.50
2019-04-06T08:43:23.985Z,19.43
2019-04-06T08:45:54.457Z,19.33
2019-04-06T08:48:25.025Z,18.00
2019-04-06T08:50:55.680Z,18.93
2019-04-06T08:53:26.408Z,18.57
2019-04-06T08:55:56.942Z,18.70
2019-04-06T08:58:27.778Z,16.50
2019-04-06T09:00:58.260Z,21.68
2019-04-06T09:03:29.203Z,18.40
2019-04-06T09:05:59.978Z,17.13
2019-04-06T09:08:30.946Z,17.60
2019-04-06T09:11:02.090Z,19.50
2019-04-06T09:13:32.771Z,19.90
2019-04-06T09:16:03.995Z,18.13
2019-04-06T09:18:34.776Z,17.33
2019-04-06T09:21:05.281Z,19.67
2019-04-06T09:23:35.998Z,16.13
2019-04-06T09:26:06.406Z,17.20
2019-04-06T09:28:36.993Z,17.17
2019-04-06T09:31:07.513Z,17.53
2019-04-06T09:33:38.221Z,17.50
2019-04-06T09:36:08.734Z,17.90
2019-04-06T09:38:39.249Z,17.97
2019-04-06T09:41:10.003Z,17.50
2019-04-06T09:43:40.459Z,17.77
2019-04-06T09:46:27.868Z,17.90
2019-04-06T09:49:17.459Z,18.50
2019-04-06T09:52:10.061Z,18.10
2019-04-06T09:55:02.925Z,18.80
2019-04-06T09:58:04.679Z,17.40
2019-04-06T10:00:57.537Z,18.00
2019-04-06T10:03:49.959Z,16.90
2019-04-06T10:06:36.552Z,17.60
2019-04-06T10:09:17.502Z,18.27
2019-04-06T10:12:10.146Z,16.53
2019-04-06T10:15:09.056Z,17.13
2019-04-06T10:17:47.392Z,18.70
2019-04-06T10:20:46.131Z,18.53
2019-04-06T10:23:41.876Z,17.00
2019-04-06T10:26:27.434Z,17.83
2019-04-06T10:29:26.404Z,17.23
2019-04-06T10:32:16.107Z,17.70
2019-04-06T10:35:06.030Z,19.77
2019-04-06T10:37:52.716Z,17.17
2019-04-06T10:40:40.786Z,17.63
2019-04-06T10:43:41.129Z,20.10
2019-04-06T10:46:30.565Z,17.93
2019-04-06T10:49:10.993Z,19.47
2019-04-06T10:51:55.688Z,20.63
2019-04-06T10:54:51.141Z,19.33
2019-04-06T10:57:40.191Z,18.80
2019-04-06T11:00:28.887Z,19.97
2019-04-06T11:03:21.412Z,20.67
2019-04-06T11:06:16.611Z,20.27
2019-04-06T11:09:12.360Z,20.20
2019-04-06T11:11:57.687Z,20.57
2019-04-06T11:14:52.896Z,20.70
2019-04-06T11:17:42.110Z,19.40
2019-04-06T11:20:41.620Z,19.50
2019-04-06T11:23:44.635Z,18.50
2019-04-06T11:26:34.228Z,20.73
2019-04-06T11:29:22.399Z,19.70
2019-04-06T11:31:59.982Z,22.20
2019-04-06T11:34:48.304Z,19.53
2019-04-06T11:37:36.291Z,21.67
2019-04-06T11:40:44.631Z,21.10
2019-04-06T11:43:30.751Z,23.00
2019-04-06T11:46:17.622Z,20.13
2019-04-06T11:49:03.666Z,19.27
2019-04-06T11:51:50.920Z,18.77
2019-04-06T11:54:46.544Z,19.00
2019-04-06T11:57:32.977Z,19.47
2019-04-06T12:00:26.824Z,18.77
2019-04-06T12:03:14.957Z,20.10
2019-04-06T12:06:03.289Z,19.10
2019-04-06T12:09:05.613Z,20.80
2019-04-06T12:12:01.076Z,19.57
2019-04-06T12:14:56.314Z,19.30
2019-04-06T12:17:50.235Z,17.90
2019-04-06T12:20:48.930Z,18.63
2019-04-06T12:23:41.612Z,17.73
2019-04-06T12:26:34.312Z,20.40
2019-04-06T12:29:23.035Z,19.43
2019-04-06T12:32:21.092Z,18.90
2019-04-06T12:35:06.673Z,19.80
2019-04-06T12:37:54.853Z,19.27
2019-04-06T12:40:59.223Z,17.97
2019-04-06T12:43:51.502Z,18.37
2019-04-06T12:46:39.859Z,19.10
2019-04-06T12:49:29.199Z,19.63
2019-04-06T12:52:21.641Z,19.67
2019-04-06T12:55:09.818Z,20.37
2019-04-06T12:57:59.173Z,20.00
2019-04-06T13:00:53.079Z,20.20
2019-04-06T13:03:41.442Z,19.10
2019-04-06T13:06:36.904Z,21.07
2019-04-06T13:09:33.931Z,20.87
2019-04-06T13:12:10.404Z,19.40
2019-04-06T13:15:06.505Z,20.10
2019-04-06T13:17:58.830Z,16.97
2019-04-06T13:20:46.266Z,17.87
2019-04-06T13:23:41.984Z,18.80
2019-04-06T13:26:32.786Z,17.60
2019-04-06T13:29:25.086Z,14.83
2019-04-06T13:32:07.898Z,15.43
2019-04-06T13:35:06.215Z,17.17
2019-04-06T13:37:55.757Z,16.10
2019-04-06T13:40:57.472Z,15.23
2019-04-06T13:43:35.843Z,15.93
2019-04-06T13:46:22.841Z,15.23
2019-04-06T13:49:13.454Z,13.83
2019-04-06T13:51:52.582Z,13.13
2019-04-06T13:54:45.088Z,14.47
2019-04-06T13:57:27.180Z,12.80
2019-04-06T14:00:15.603Z,14.00
2019-04-06T14:03:08.523Z,14.47
2019-04-06T14:06:09.336Z,12.57
2019-04-06T14:09:01.467Z,12.63
2019-04-06T14:12:03.383Z,14.40
2019-04-06T14:15:04.577Z,13.43
2019-04-06T14:18:06.000Z,13.43
2019-04-06T14:20:43.621Z,12.57
2019-04-06T14:23:31.830Z,12.50
2019-04-06T14:26:27.349Z,13.00
2019-04-06T14:29:06.266Z,12.63
2019-04-06T14:31:55.097Z,13.88
2019-04-06T14:34:34.039Z,12.20
2019-04-06T14:37:22.311Z,13.60
2019-04-06T14:40:10.592Z,13.80
2019-04-06T14:43:00.110Z,15.43
2019-04-06T14:45:55.932Z,13.40
2019-04-06T14:48:44.567Z,12.13
2019-04-06T14:51:37.046Z,13.20
2019-04-06T14:54:22.504Z,14.33
2019-04-06T14:57:12.324Z,14.23
2019-04-06T15:00:04.631Z,14.00
2019-04-06T15:03:09.084Z,11.87
2019-04-06T15:05:58.397Z,14.77
2019-04-06T15:08:46.691Z,17.45
2019-04-06T15:11:31.536Z,15.63
2019-04-06T15:14:33.241Z,13.93
2019-04-06T15:17:27.948Z,13.40
2019-04-06T15:20:23.685Z,13.10
2019-04-06T15:23:12.397Z,14.63
2019-04-06T15:26:00.478Z,13.97
2019-04-06T15:29:09.646Z,15.77
2019-04-06T15:31:59.516Z,14.43
2019-04-06T15:34:55.363Z,15.37
2019-04-06T15:37:43.663Z,14.93
2019-04-06T15:40:23.044Z,14.90
2019-04-06T15:43:19.289Z,14.00
2019-04-06T15:46:18.140Z,14.53
2019-04-06T15:49:02.598Z,14.60
2019-04-06T15:51:52.062Z,14.20
2019-04-06T15:54:44.718Z,13.17
2019-04-06T15:57:31.307Z,12.97
2019-04-06T16:00:08.245Z,12.80
2019-04-06T16:03:03.771Z,13.77
2019-04-06T16:05:47.777Z,12.60
2019-04-06T16:08:44.662Z,12.13
2019-04-06T16:11:33.981Z,14.30
2019-04-06T16:14:41.534Z,13.73
2019-04-06T16:17:16.803Z,13.93
2019-04-06T16:20:21.442Z,14.20
2019-04-06T16:23:11.129Z,11.83
2019-04-06T16:26:00.894Z,11.73
2019-04-06T16:28:40.307Z,13.17
2019-04-06T16:31:29.723Z,11.93
2019-04-06T16:34:19.054Z,12.80
2019-04-06T16:37:15.014Z,12.87
2019-04-06T16:40:22.668Z,12.30
2019-04-06T16:43:07.840Z,11.37
2019-04-06T16:46:15.347Z,11.03
2019-04-06T16:49:04.900Z,11.20
2019-04-06T16:51:54.276Z,9.90
2019-04-06T16:54:33.104Z,10.33
2019-04-06T16:57:34.954Z,8.63
2019-04-06T17:00:24.460Z,8.60
2019-04-06T17:03:22.138Z,9.87
2019-04-06T17:06:11.623Z,7.27
2019-04-06T17:08:52.839Z,7.63
2019-04-06T17:11:57.463Z,7.30
2019-04-06T17:14:52.914Z,6.80
2019-04-06T17:17:44.269Z,7.83
2019-04-06T17:20:33.443Z,7.10
2019-04-06T17:23:09.561Z,6.53
2019-04-06T17:25:49.773Z,7.87
2019-04-06T17:28:38.204Z,7.67
2019-04-06T17:31:21.202Z,5.70
2019-04-06T17:34:02.643Z,7.13
2019-04-06T17:36:58.028Z,7.00
2019-04-06T17:39:50.463Z,5.93
2019-04-06T17:42:45.928Z,5.63
2019-04-06T17:45:27.658Z,6.00
2019-04-06T17:48:23.277Z,6.37
2019-04-06T17:51:07.920Z,6.97
2019-04-06T17:54:03.335Z,7.13
2019-04-06T17:56:40.219Z,6.10
2019-04-06T17:59:25.773Z,6.20
2019-04-06T18:02:13.347Z,6.47
2019-04-06T18:05:21.697Z,6.27
2019-04-06T18:08:20.221Z,7.17
2019-04-06T18:11:12.988Z,6.27
2019-04-06T18:14:00.193Z,6.00
2019-04-06T18:16:35.721Z,6.70
2019-04-06T18:19:06.805Z,6.23
2019-04-06T18:21:37.358Z,6.73
2019-04-06T18:24:07.912Z,6.53
2019-04-06T18:26:38.395Z,7.53
2019-04-06T18:29:08.892Z,6.73
2019-04-06T18:32:16.457Z,7.60
2019-04-06T18:34:47.031Z,7.60
2019-04-06T18:37:36.827Z,7.20
2019-04-06T18:40:20.103Z,6.30
2019-04-06T18:42:50.801Z,7.40
2019-04-06T18:45:21.226Z,7.00
2019-04-06T18:47:51.957Z,7.43
2019-04-06T18:50:33.268Z,6.77
2019-04-06T18:52:55.549Z,7.67
2019-04-06T18:55:27.034Z,7.00
2019-04-06T18:58:08.679Z,7.90
2019-04-06T19:00:29.937Z,7.53
2019-04-06T19:03:10.940Z,7.73
2019-04-06T19:05:32.832Z,8.40
2019-04-06T19:08:03.400Z,8.03
2019-04-06T19:10:34.032Z,9.13
2019-04-06T19:13:04.594Z,8.63
2019-04-06T19:15:35.078Z,7.27
2019-04-06T19:18:05.649Z,8.30
2019-04-06T19:20:36.171Z,8.27
2019-04-06T19:23:07.107Z,7.67
2019-04-06T19:25:40.995Z,8.17
2019-04-06T19:28:11.972Z,7.90
2019-04-06T19:30:42.861Z,6.93
2019-04-06T19:33:23.367Z,8.13
2019-04-06T19:35:48.763Z,6.83
2019-04-06T19:38:19.424Z,8.37
2019-04-06T19:40:53.434Z,7.67
2019-04-06T19:43:24.156Z,8.50
2019-04-06T19:45:55.655Z,7.93
2019-04-06T19:48:26.248Z,8.90
2019-04-06T19:50:56.726Z,9.20
2019-04-06T19:53:27.203Z,8.43
2019-04-06T19:55:57.698Z,9.20
2019-04-06T19:58:28.376Z,8.40
2019-04-06T20:00:58.932Z,9.30
2019-04-06T20:03:36.001Z,8.50
2019-04-06T20:06:02.720Z,9.50
2019-04-06T20:08:33.292Z,9.30
2019-04-06T20:11:03.783Z,8.90
2019-04-06T20:13:34.424Z,8.87
2019-04-06T20:16:04.919Z,8.53
2019-04-06T20:18:35.789Z,8.77
2019-04-06T20:21:06.371Z,8.23
2019-04-06T20:23:37.366Z,8.40
2019-04-06T20:26:07.981Z,9.00
2019-04-06T20:28:39.013Z,8.40
2019-04-06T20:31:09.725Z,8.70
2019-04-06T20:33:48.155Z,8.57
2019-04-06T20:36:13.083Z,9.40
2019-04-06T20:38:43.607Z,10.13
2019-04-06T20:41:14.435Z,8.90
2019-04-06T20:43:45.022Z,8.57
2019-04-06T20:46:15.766Z,9.00
2019-04-06T20:48:46.589Z,9.47
2019-04-06T20:51:17.116Z,9.30
2019-04-06T20:53:47.667Z,8.50
2019-04-06T20:56:18.226Z,9.13
2019-04-06T20:58:49.131Z,8.97
2019-04-06T21:01:19.980Z,9.63
2019-04-06T21:03:59.659Z,9.07
2019-04-06T21:06:23.373Z,9.17
2019-04-06T21:08:53.994Z,8.33
2019-04-06T21:11:24.614Z,9.03
2019-04-06T21:13:55.200Z,9.73
2019-04-06T21:16:25.863Z,8.87
2019-04-06T21:18:57.926Z,9.80
2019-04-06T21:21:28.643Z,9.80
2019-04-06T21:23:59.412Z,9.20
2019-04-06T21:26:30.028Z,9.87
2019-04-06T21:29:00.469Z,9.93
2019-04-06T21:31:31.593Z,8.77
2019-04-06T21:34:10.403Z,10.00
2019-04-06T21:36:35.079Z,9.60
2019-04-06T21:39:07.442Z,10.10
2019-04-06T21:41:38.467Z,9.60
2019-04-06T21:44:08.951Z,9.90
2019-04-06T21:46:39.473Z,10.33
2019-04-06T21:49:10.131Z,10.80
2019-04-06T21:51:40.627Z,10.50
2019-04-06T21:54:11.115Z,10.73
2019-04-06T21:56:42.379Z,9.60
2019-04-06T21:59:15.295Z,11.00
2019-04-06T22:01:45.545Z,10.63
2019-04-06T22:04:23.606Z,9.53
2019-04-06T22:06:48.526Z,10.50
2019-04-06T22:09:20.307Z,10.67
2019-04-06T22:11:51.465Z,10.17
2019-04-06T22:14:22.767Z,10.57
2019-04-06T22:16:53.414Z,10.10
2019-04-06T22:19:25.236Z,10.53
2019-04-06T22:21:56.282Z,10.50
2019-04-06T22:24:26.781Z,10.40
2019-04-06T22:26:57.444Z,11.83
2019-04-06T22:29:28.675Z,10.70
2019-04-06T22:31:59.597Z,10.73
2019-04-06T22:34:39.410Z,10.27
2019-04-06T22:37:02.706Z,13.20
2019-04-06T22:39:33.322Z,11.90
2019-04-06T22:42:04.368Z,10.63
2019-04-06T22:44:35.322Z,11.10
2019-04-06T22:47:05.970Z,11.33
2019-04-06T22:49:36.582Z,11.60
2019-04-06T22:52:07.930Z,11.13
2019-04-06T22:54:38.772Z,10.97
2019-04-06T22:57:09.312Z,11.73
2019-04-06T22:59:40.401Z,11.23
2019-04-06T23:02:10.989Z,11.40
2019-04-06T23:04:51.007Z,11.17
2019-04-06T23:07:22.428Z,11.30
2019-04-06T23:09:53.133Z,12.40
2019-04-06T23:12:23.834Z,12.00
2019-04-06T23:14:54.432Z,11.47
2019-04-06T23:17:25.245Z,12.37
2019-04-06T23:19:55.714Z,11.73
2019-04-06T23:22:26.355Z,11.13
2019-04-06T23:24:56.853Z,12.10
2019-04-06T23:27:27.361Z,12.23
2019-04-06T23:29:58.769Z,12.10
2019-04-06T23:32:29.599Z,11.83
2019-04-06T23:35:02.252Z,12.10
2019-04-06T23:37:32.392Z,11.97
2019-04-06T23:40:02.884Z,12.47
2019-04-06T23:42:33.336Z,11.90
2019-04-06T23:45:04.746Z,12.40
2019-04-06T23:47:35.416Z,11.53
2019-04-06T23:50:06.743Z,12.50
2019-04-06T23:52:37.426Z,13.43
2019-04-06T23:55:08.429Z,11.83
2019-04-06T23:57:39.393Z,12.03
